Time;durP1;ratioP1;P1;durP2;ratioP2;P2;SDS_P1;SDS_P2;PMS_P1;PMS_P2;Temp;Humidity;BMP_temperature;BMP_pressure;BME280_temperature;BME280_humidity;BME280_pressure;Samples;Min_cycle;Max_cycle;Signal;HPM_P1;HPM_P2
2022/04/10 00:01:21;;;;;;;0.90;0.90;;;16.40;41.80;;;;;;5065328;28;46831;-18
2022/04/10 00:03:47;;;;;;;0.70;0.70;;;16.40;42.00;;;;;;5065345;28;46946;-21
2022/04/10 00:06:14;;;;;;;0.88;0.88;;;16.40;42.00;;;;;;5065324;28;48004;-11
2022/04/10 00:08:42;;;;;;;0.70;0.70;;;16.40;41.90;;;;;;5065354;28;46905;-11
2022/04/10 00:11:10;;;;;;;1.58;0.80;;;16.40;41.90;;;;;;5065434;28;46944;-12
2022/04/10 00:13:37;;;;;;;0.80;0.80;;;16.30;41.90;;;;;;5065857;28;46882;-11
2022/04/10 00:16:04;;;;;;;0.80;0.80;;;16.40;41.80;;;;;;5065363;28;47069;-21
2022/04/10 00:18:31;;;;;;;0.98;0.80;;;16.30;41.80;;;;;;5065151;28;46760;-11
2022/04/10 00:20:58;;;;;;;0.77;0.77;;;16.30;41.80;;;;;;5065327;28;46874;-22
2022/04/10 00:23:25;;;;;;;0.80;0.80;;;16.30;41.80;;;;;;5065252;28;46945;-11
2022/04/10 00:25:53;;;;;;;1.25;0.73;;;16.30;41.80;;;;;;5065210;28;49078;-12
2022/04/10 00:28:20;;;;;;;0.95;0.80;;;16.30;41.80;;;;;;5065116;28;46827;-11
2022/04/10 00:30:46;;;;;;;0.90;0.90;;;16.30;41.60;;;;;;5065016;28;47028;-12
2022/04/10 00:33:13;;;;;;;0.90;0.90;;;16.30;41.80;;;;;;5065002;28;46823;-22
2022/04/10 00:35:40;;;;;;;0.90;0.90;;;16.30;41.70;;;;;;5064700;28;48010;-11
2022/04/10 00:38:07;;;;;;;0.73;0.73;;;16.30;41.70;;;;;;5064811;28;46887;-12
2022/04/10 00:40:34;;;;;;;1.73;0.90;;;16.30;41.60;;;;;;5065120;28;46902;-11
2022/04/10 00:43:02;;;;;;;0.70;0.70;;;16.20;41.50;;;;;;5064677;28;47128;-21
2022/04/10 00:45:29;;;;;;;0.75;0.75;;;16.20;41.70;;;;;;5064900;28;47932;-17
2022/04/10 00:47:55;;;;;;;0.85;0.80;;;16.20;41.70;;;;;;5064718;28;47557;-22
2022/04/10 00:50:22;;;;;;;1.02;1.02;;;16.20;41.70;;;;;;5064749;28;46912;-12
2022/04/10 00:52:50;;;;;;;0.80;0.63;;;16.20;41.60;;;;;;5064848;28;47282;-22
2022/04/10 00:55:17;;;;;;;0.70;0.70;;;16.20;41.70;;;;;;5067814;28;47882;-12
2022/04/10 00:57:44;;;;;;;0.80;0.80;;;16.20;41.60;;;;;;5068262;28;46827;-11
2022/04/10 01:00:14;;;;;;;0.70;0.70;;;16.20;41.60;;;;;;5068458;28;46843;-21
2022/04/10 01:02:41;;;;;;;1.10;0.98;;;16.20;41.60;;;;;;5068099;28;46732;-22
2022/04/10 01:05:08;;;;;;;1.17;0.90;;;16.20;41.50;;;;;;5068293;28;47872;-12
2022/04/10 01:07:35;;;;;;;1.02;0.82;;;16.20;41.60;;;;;;5068015;28;47263;-22
2022/04/10 01:10:02;;;;;;;1.02;0.98;;;16.20;41.60;;;;;;5068123;28;46923;-21
2022/04/10 01:12:28;;;;;;;1.02;0.68;;;16.10;41.60;;;;;;5068261;28;46880;-21
2022/04/10 01:14:55;;;;;;;0.80;0.80;;;16.10;41.60;;;;;;5067880;28;47918;-12
2022/04/10 01:17:23;;;;;;;0.73;0.73;;;16.10;41.50;;;;;;5067874;28;47009;-12
2022/04/10 01:19:50;;;;;;;0.80;0.80;;;16.10;41.60;;;;;;5067763;28;46992;-11
2022/04/10 01:22:42;;;;;;;0.82;0.82;;;16.10;41.50;;;;;;5067659;28;47375;-22
2022/04/10 01:25:10;;;;;;;0.73;0.73;;;16.10;41.50;;;;;;5043428;28;47967;-12
2022/04/10 01:27:38;;;;;;;0.77;0.77;;;16.00;41.50;;;;;;5067420;28;47143;-12
2022/04/10 01:30:05;;;;;;;0.93;0.93;;;16.00;41.50;;;;;;5067668;28;46915;-12
2022/04/10 01:32:32;;;;;;;0.73;0.73;;;16.00;41.50;;;;;;5067512;28;47282;-22
2022/04/10 01:34:59;;;;;;;0.90;0.90;;;16.00;41.60;;;;;;5067918;28;48141;-21
2022/04/10 01:37:26;;;;;;;0.77;0.77;;;16.00;41.60;;;;;;5067440;28;47186;-24
2022/04/10 01:39:54;;;;;;;0.70;0.70;;;16.00;41.50;;;;;;5067315;28;46841;-22
2022/04/10 01:42:20;;;;;;;0.70;0.70;;;16.00;41.50;;;;;;5067225;28;46909;-21
2022/04/10 01:44:47;;;;;;;0.85;0.75;;;16.00;41.50;;;;;;5067654;28;48835;-21
2022/04/10 01:47:14;;;;;;;2.05;0.88;;;15.90;41.30;;;;;;5067240;28;46953;-12
2022/04/10 01:49:40;;;;;;;0.90;0.90;;;15.90;41.40;;;;;;5067613;28;46895;-12
2022/04/10 01:52:08;;;;;;;0.70;0.70;;;15.90;41.40;;;;;;5067311;28;47287;-12
2022/04/10 01:54:35;;;;;;;1.10;1.00;;;15.90;41.40;;;;;;5067136;28;48700;-12
2022/04/10 01:57:03;;;;;;;0.75;0.75;;;15.90;41.40;;;;;;5067073;28;46987;-23
2022/04/10 01:59:30;;;;;;;0.90;0.90;;;15.90;41.40;;;;;;5067209;28;46855;-22
2022/04/10 02:01:57;;;;;;;1.10;1.00;;;15.90;41.50;;;;;;5066959;28;47194;-12
2022/04/10 02:04:23;;;;;;;0.90;0.90;;;15.80;41.20;;;;;;5066736;28;47071;-22
2022/04/10 02:06:50;;;;;;;0.88;0.88;;;15.80;41.40;;;;;;5065949;28;46753;-12
2022/04/10 02:09:18;;;;;;;0.80;0.80;;;15.80;41.40;;;;;;5067268;28;46991;-22
2022/04/10 02:11:44;;;;;;;1.20;1.00;;;15.80;41.50;;;;;;5066929;28;46905;-22
2022/04/10 02:14:12;;;;;;;0.95;0.85;;;15.80;41.40;;;;;;5066949;28;48036;-12
2022/04/10 02:16:39;;;;;;;0.80;0.80;;;15.80;41.40;;;;;;5066674;28;46891;-11
2022/04/10 02:19:06;;;;;;;0.80;0.80;;;15.80;41.40;;;;;;5067135;28;46853;-22
2022/04/10 02:21:32;;;;;;;0.75;0.75;;;15.80;41.40;;;;;;5067296;28;46976;-22
2022/04/10 02:23:59;;;;;;;1.27;0.77;;;15.70;41.30;;;;;;5066524;28;48190;-22
2022/04/10 02:26:26;;;;;;;0.70;0.70;;;15.70;41.50;;;;;;5066906;28;46942;-12
2022/04/10 02:28:52;;;;;;;0.88;0.80;;;15.70;41.40;;;;;;5067056;28;46809;-23
2022/04/10 02:31:21;;;;;;;1.13;0.93;;;15.70;41.40;;;;;;5067143;28;47460;-23
2022/04/10 02:33:47;;;;;;;0.88;0.80;;;15.70;41.40;;;;;;5066832;28;49041;-22
2022/04/10 02:36:16;;;;;;;1.58;0.90;;;15.70;41.40;;;;;;5066721;28;46881;-22
2022/04/10 02:38:43;;;;;;;0.90;0.90;;;15.70;41.50;;;;;;5066860;28;46943;-22
2022/04/10 02:41:10;;;;;;;1.08;1.00;;;15.70;41.40;;;;;;5066497;28;46906;-12
2022/04/10 02:43:38;;;;;;;1.20;0.80;;;15.70;41.30;;;;;;5066149;28;48963;-14
2022/04/10 02:46:05;;;;;;;0.65;0.65;;;15.60;41.30;;;;;;5066270;28;47029;-22
2022/04/10 02:48:33;;;;;;;0.80;0.80;;;15.60;41.30;;;;;;5066475;28;46916;-12
2022/04/10 02:50:59;;;;;;;0.73;0.73;;;15.60;41.30;;;;;;5066681;28;46869;-12
2022/04/10 02:53:26;;;;;;;0.82;0.82;;;15.60;41.20;;;;;;5065828;28;49043;-12
2022/04/10 02:55:53;;;;;;;0.80;0.80;;;15.60;41.20;;;;;;5066238;28;47006;-22
2022/04/10 02:58:20;;;;;;;0.80;0.80;;;15.60;41.30;;;;;;5066383;28;46922;-22
2022/04/10 03:00:47;;;;;;;1.13;0.82;;;15.50;41.40;;;;;;5066365;28;46835;-22
2022/04/10 03:03:14;;;;;;;0.80;0.80;;;15.50;41.20;;;;;;5065663;28;48785;-12
2022/04/10 03:05:42;;;;;;;1.08;1.00;;;15.50;41.30;;;;;;5065908;28;46905;-12
2022/04/10 03:08:09;;;;;;;0.82;0.73;;;15.50;41.30;;;;;;5066011;28;46995;-22
2022/04/10 03:10:36;;;;;;;0.82;0.82;;;15.50;41.30;;;;;;5066371;28;46934;-12
2022/04/10 03:13:02;;;;;;;0.70;0.70;;;15.50;41.20;;;;;;5065606;28;47068;-23
2022/04/10 03:15:29;;;;;;;1.08;1.08;;;15.50;41.20;;;;;;5066007;28;47417;-12
2022/04/10 03:17:56;;;;;;;0.77;0.77;;;15.40;41.20;;;;;;5065386;28;46886;-23
2022/04/10 03:20:22;;;;;;;1.13;1.02;;;15.40;41.30;;;;;;5065925;28;47079;-12
2022/04/10 03:22:50;;;;;;;0.70;0.70;;;15.50;41.30;;;;;;5065422;28;47750;-21
2022/04/10 03:25:17;;;;;;;1.00;0.80;;;15.40;41.20;;;;;;5066053;28;47192;-12
2022/04/10 03:27:44;;;;;;;0.93;0.82;;;15.40;41.20;;;;;;5065873;28;47076;-23
2022/04/10 03:30:11;;;;;;;1.55;1.00;;;15.40;41.30;;;;;;5066072;28;46886;-22
2022/04/10 03:32:38;;;;;;;0.70;0.70;;;15.40;41.30;;;;;;5065706;28;48296;-12
2022/04/10 03:35:06;;;;;;;0.82;0.80;;;15.40;41.20;;;;;;5065763;28;46917;-22
2022/04/10 03:37:33;;;;;;;0.95;0.80;;;15.40;41.20;;;;;;5065907;28;46799;-22
2022/04/10 03:40:03;;;;;;;0.80;0.80;;;15.40;41.30;;;;;;5065859;28;46836;-12
2022/04/10 03:42:37;;;;;;;0.88;0.88;;;15.40;41.20;;;;;;5065899;28;48756;-12
2022/04/10 03:45:04;;;;;;;0.88;0.88;;;15.30;41.20;;;;;;5065948;28;47071;-22
2022/04/10 03:47:30;;;;;;;0.93;0.93;;;15.30;41.20;;;;;;5065646;28;46951;-23
2022/04/10 03:49:57;;;;;;;0.80;0.80;;;15.30;41.20;;;;;;5065969;28;46846;-12
2022/04/10 03:52:24;;;;;;;0.70;0.70;;;15.30;41.20;;;;;;5065489;28;48849;-12
2022/04/10 03:54:50;;;;;;;0.70;0.70;;;15.30;41.10;;;;;;5065306;28;47116;-23
2022/04/10 03:57:18;;;;;;;1.17;0.70;;;15.30;41.20;;;;;;5065464;28;46898;-22
2022/04/10 03:59:45;;;;;;;0.85;0.85;;;15.30;41.30;;;;;;5065761;28;47271;-22
2022/04/10 04:02:15;;;;;;;1.33;0.77;;;15.30;41.30;;;;;;5064999;28;46885;-12
2022/04/10 04:04:42;;;;;;;0.80;0.80;;;15.30;41.20;;;;;;5065495;28;46983;-22
2022/04/10 04:07:09;;;;;;;1.98;0.85;;;15.20;41.20;;;;;;5065256;28;47052;-23
2022/04/10 04:09:35;;;;;;;0.80;0.80;;;15.20;41.20;;;;;;5065668;28;47269;-22
2022/04/10 04:12:02;;;;;;;0.80;0.80;;;15.20;41.10;;;;;;5065383;28;47931;-23
2022/04/10 04:14:30;;;;;;;0.77;0.77;;;15.20;41.30;;;;;;5065030;28;46787;-22
2022/04/10 04:16:57;;;;;;;0.85;0.80;;;15.20;41.20;;;;;;5065244;28;46765;-12
2022/04/10 04:19:23;;;;;;;0.85;0.85;;;15.20;41.10;;;;;;5065481;28;47299;-12
2022/04/10 04:21:50;;;;;;;0.75;0.75;;;15.10;41.10;;;;;;5065107;28;47056;-12
2022/04/10 04:24:17;;;;;;;0.77;0.70;;;15.10;41.10;;;;;;5064924;28;46953;-22
2022/04/10 04:26:44;;;;;;;0.70;0.70;;;15.10;41.20;;;;;;5065178;28;47125;-22
2022/04/10 04:29:10;;;;;;;0.70;0.70;;;15.10;41.20;;;;;;5067022;28;46729;-13
2022/04/10 04:31:38;;;;;;;0.95;0.80;;;15.00;41.00;;;;;;5068491;28;48930;-23
2022/04/10 04:34:07;;;;;;;1.08;0.98;;;15.00;41.10;;;;;;5068766;28;47123;-22
2022/04/10 04:36:33;;;;;;;0.90;0.90;;;15.00;41.00;;;;;;5068804;28;46849;-22
2022/04/10 04:39:00;;;;;;;0.98;0.98;;;15.00;41.10;;;;;;5068998;28;46834;-12
2022/04/10 04:41:27;;;;;;;0.80;0.80;;;14.90;41.00;;;;;;5068463;28;48650;-12
2022/04/10 04:43:53;;;;;;;0.80;0.80;;;14.90;41.10;;;;;;5068635;28;47016;-22
2022/04/10 04:46:20;;;;;;;0.90;0.90;;;14.90;41.10;;;;;;5068600;28;46886;-12
2022/04/10 04:48:48;;;;;;;1.60;0.80;;;14.80;41.10;;;;;;5068622;28;47514;-22
2022/04/10 04:51:15;;;;;;;1.50;0.80;;;14.80;41.20;;;;;;5068155;28;48780;-23
2022/04/10 04:53:42;;;;;;;0.90;0.90;;;14.80;41.10;;;;;;5067767;28;46823;-23
2022/04/10 04:56:08;;;;;;;1.05;0.77;;;14.70;41.20;;;;;;5068493;28;47041;-22
2022/04/10 04:58:35;;;;;;;1.35;0.90;;;14.70;41.30;;;;;;5068639;28;46913;-22
2022/04/10 05:01:02;;;;;;;1.00;0.90;;;14.70;41.20;;;;;;5068315;28;49049;-13
2022/04/10 05:03:28;;;;;;;0.80;0.80;;;14.60;41.20;;;;;;5067859;28;46816;-13
2022/04/10 05:05:56;;;;;;;0.98;0.98;;;14.60;41.10;;;;;;5068139;28;46781;-23
2022/04/10 05:08:23;;;;;;;1.27;1.17;;;14.60;41.40;;;;;;5068429;28;46827;-12
2022/04/10 05:10:50;;;;;;;0.80;0.80;;;14.60;41.20;;;;;;5067849;28;47067;-12
2022/04/10 05:13:17;;;;;;;0.80;0.80;;;14.60;41.30;;;;;;5067936;28;46922;-12
2022/04/10 05:15:43;;;;;;;0.90;0.90;;;14.60;41.30;;;;;;5068228;28;46964;-23
2022/04/10 05:18:13;;;;;;;0.95;0.95;;;14.50;41.20;;;;;;5068192;28;47036;-22
2022/04/10 05:20:39;;;;;;;0.90;0.90;;;14.50;41.20;;;;;;5067781;28;48100;-12
2022/04/10 05:23:07;;;;;;;1.90;1.10;;;14.50;41.30;;;;;;5068035;28;47263;-12
2022/04/10 05:25:36;;;;;;;0.93;0.90;;;14.50;41.20;;;;;;5068129;28;46858;-22
2022/04/10 05:28:02;;;;;;;1.30;0.95;;;14.50;41.50;;;;;;5068074;28;46958;-22
2022/04/10 05:30:29;;;;;;;0.85;0.85;;;14.50;41.40;;;;;;5067848;28;48140;-19
2022/04/10 05:32:57;;;;;;;0.73;0.73;;;14.40;41.30;;;;;;5067491;28;47129;-12
2022/04/10 05:35:23;;;;;;;1.02;0.93;;;14.40;41.30;;;;;;5067658;28;46913;-22
2022/04/10 05:37:50;;;;;;;1.00;1.00;;;14.40;41.40;;;;;;5067843;28;46935;-12
2022/04/10 05:40:18;;;;;;;0.90;0.90;;;14.40;41.20;;;;;;5067658;28;48981;-22
2022/04/10 05:42:45;;;;;;;1.10;0.80;;;14.40;41.20;;;;;;5067380;28;47078;-12
2022/04/10 05:45:12;;;;;;;1.00;1.00;;;14.40;41.40;;;;;;5067821;28;46967;-12
2022/04/10 05:47:41;;;;;;;1.00;0.95;;;14.40;41.50;;;;;;5067462;28;47093;-23
2022/04/10 05:50:08;;;;;;;1.10;1.10;;;14.40;41.50;;;;;;5067538;28;48014;-23
2022/04/10 05:52:37;;;;;;;0.90;0.90;;;14.30;41.50;;;;;;5067032;28;46977;-12
2022/04/10 05:55:05;;;;;;;1.05;1.00;;;14.30;41.40;;;;;;5067542;28;46917;-12
2022/04/10 05:57:33;;;;;;;0.77;0.75;;;14.30;41.30;;;;;;5067461;28;47204;-22
2022/04/10 06:00:01;;;;;;;0.88;0.88;;;14.30;41.40;;;;;;5067110;28;46880;-12
2022/04/10 06:02:27;;;;;;;1.00;1.00;;;14.30;41.40;;;;;;5067078;28;46977;-12
2022/04/10 06:04:55;;;;;;;1.10;1.00;;;14.30;41.40;;;;;;5067602;28;46733;-12
2022/04/10 06:07:22;;;;;;;1.20;1.10;;;14.30;41.30;;;;;;5067356;28;47159;-12
2022/04/10 06:09:49;;;;;;;1.10;0.98;;;14.30;41.40;;;;;;5067212;28;47850;-13
2022/04/10 06:12:15;;;;;;;1.05;0.98;;;14.30;41.30;;;;;;5067200;28;47310;-12
2022/04/10 06:14:43;;;;;;;1.10;0.95;;;14.30;41.30;;;;;;5066963;28;46952;-12
2022/04/10 06:17:10;;;;;;;1.38;1.00;;;14.30;41.50;;;;;;5066881;28;46997;-22
2022/04/10 06:19:37;;;;;;;1.15;1.05;;;14.30;41.40;;;;;;5067291;28;48818;-12
2022/04/10 06:22:05;;;;;;;1.83;1.08;;;14.30;41.40;;;;;;5067005;28;46935;-12
2022/04/10 06:24:32;;;;;;;0.90;0.90;;;14.30;41.30;;;;;;5066677;28;46839;-12
2022/04/10 06:26:58;;;;;;;1.23;1.15;;;14.30;41.40;;;;;;5067371;28;47286;-12
2022/04/10 06:29:25;;;;;;;1.08;1.02;;;14.30;42.00;;;;;;5066894;28;47060;-22
2022/04/10 06:31:53;;;;;;;1.10;1.00;;;14.30;41.60;;;;;;5066291;28;46865;-12
2022/04/10 06:34:20;;;;;;;1.27;1.08;;;14.40;41.40;;;;;;5066851;28;46870;-13
2022/04/10 06:36:47;;;;;;;1.33;1.23;;;14.40;41.60;;;;;;5066811;28;47326;-23
2022/04/10 06:39:15;;;;;;;1.30;1.20;;;14.40;41.60;;;;;;5066712;28;46903;-12
2022/04/10 06:41:42;;;;;;;1.00;1.00;;;14.40;41.40;;;;;;5066506;28;47179;-22
2022/04/10 06:44:09;;;;;;;1.20;1.10;;;14.40;41.60;;;;;;5066668;28;47024;-12
2022/04/10 06:46:36;;;;;;;0.70;0.70;;;14.40;41.50;;;;;;5066681;28;46878;-22
2022/04/10 06:49:04;;;;;;;1.13;1.02;;;14.40;41.60;;;;;;5066632;28;48805;-12
2022/04/10 06:51:30;;;;;;;1.13;1.13;;;14.40;41.70;;;;;;5065578;28;46870;-12
2022/04/10 06:53:57;;;;;;;1.27;1.17;;;14.40;41.60;;;;;;5065988;28;46889;-12
2022/04/10 06:56:24;;;;;;;0.93;0.93;;;14.30;41.70;;;;;;5066414;28;46954;-22
2022/04/10 06:58:50;;;;;;;1.10;1.00;;;14.40;41.80;;;;;;5066147;28;48750;-12
2022/04/10 07:01:17;;;;;;;1.00;0.95;;;14.40;41.70;;;;;;5066354;28;47039;-12
2022/04/10 07:03:44;;;;;;;0.88;0.88;;;14.40;41.70;;;;;;5066403;28;47008;-22
2022/04/10 07:06:12;;;;;;;1.10;1.10;;;14.40;41.90;;;;;;5066478;28;46878;-22
2022/04/10 07:08:39;;;;;;;1.10;1.00;;;14.40;41.80;;;;;;5066386;28;47941;-12
2022/04/10 07:11:06;;;;;;;1.40;1.05;;;14.40;41.80;;;;;;5066293;28;46919;-12
2022/04/10 07:13:32;;;;;;;1.10;1.00;;;14.40;41.80;;;;;;5066002;28;46884;-20
2022/04/10 07:15:59;;;;;;;1.00;1.00;;;14.40;41.80;;;;;;5066396;28;47250;-22
2022/04/10 07:18:26;;;;;;;1.67;1.00;;;14.40;41.80;;;;;;5065770;28;48007;-22
2022/04/10 07:20:53;;;;;;;1.23;1.13;;;14.40;42.00;;;;;;5066094;28;46885;-22
2022/04/10 07:26:07;;;;;;;1.20;1.00;;;14.40;42.00;;;;;;5063413;28;46976;-22
2022/04/10 07:28:34;;;;;;;0.90;0.90;;;14.40;42.10;;;;;;5065903;28;47912;-22
2022/04/10 07:31:01;;;;;;;1.15;1.05;;;14.40;42.10;;;;;;5065721;28;46925;-12
2022/04/10 07:33:28;;;;;;;1.30;1.20;;;14.40;42.10;;;;;;5065701;28;46986;-22
2022/04/10 07:35:54;;;;;;;0.88;0.88;;;14.40;42.20;;;;;;5066158;28;46997;-12
2022/04/10 07:38:23;;;;;;;1.00;0.80;;;14.50;42.20;;;;;;5065266;28;47932;-11
2022/04/10 07:40:49;;;;;;;1.25;0.73;;;14.40;42.20;;;;;;5065887;28;47490;-22
2022/04/10 07:43:16;;;;;;;0.88;0.82;;;14.40;42.30;;;;;;5065360;28;46796;-12
2022/04/10 07:48:27;;;;;;;1.38;0.90;;;14.40;42.30;;;;;;5065308;28;47557;-12
2022/04/10 07:50:55;;;;;;;0.85;0.80;;;14.50;42.30;;;;;;5065454;28;46967;-12
2022/04/10 07:53:23;;;;;;;1.00;0.90;;;14.50;42.40;;;;;;5065134;28;46964;-18
2022/04/10 07:55:50;;;;;;;1.42;0.85;;;14.50;42.40;;;;;;5065810;28;47329;-12
2022/04/10 07:58:17;;;;;;;0.95;0.95;;;14.60;42.40;;;;;;5065344;28;47975;-17
2022/04/10 08:00:43;;;;;;;1.27;0.90;;;14.50;42.40;;;;;;5065217;28;46736;-12
2022/04/10 08:03:10;;;;;;;0.80;0.80;;;14.50;42.40;;;;;;5064482;28;46943;-22
2022/04/10 08:05:37;;;;;;;0.93;0.80;;;14.50;42.60;;;;;;5065581;28;46917;-12
2022/04/10 08:08:04;;;;;;;0.98;0.90;;;14.60;42.50;;;;;;5065320;28;48742;-12
2022/04/10 08:10:32;;;;;;;1.40;0.80;;;14.50;42.50;;;;;;5065075;28;46810;-12
2022/04/10 08:12:59;;;;;;;0.82;0.82;;;14.60;42.60;;;;;;5064932;28;47009;-22
2022/04/10 08:15:26;;;;;;;0.95;0.70;;;14.60;42.70;;;;;;5065055;28;47284;-22
2022/04/10 08:17:53;;;;;;;0.70;0.70;;;14.60;42.80;;;;;;5064984;28;47845;-15
2022/04/10 08:20:20;;;;;;;0.80;0.77;;;14.60;42.80;;;;;;5065078;28;46886;-12
2022/04/10 08:22:49;;;;;;;0.85;0.85;;;14.60;42.80;;;;;;5065081;28;46963;-12
2022/04/10 08:25:16;;;;;;;0.90;0.73;;;14.60;42.70;;;;;;5065197;28;46886;-12
2022/04/10 08:27:45;;;;;;;1.02;0.90;;;14.70;42.90;;;;;;5064683;28;48900;-23
2022/04/10 08:30:12;;;;;;;1.02;0.93;;;14.70;42.80;;;;;;5064912;28;46761;-22
2022/04/10 08:32:40;;;;;;;2.80;1.00;;;14.70;42.80;;;;;;5065170;28;46779;-12
2022/04/10 08:35:08;;;;;;;1.15;0.80;;;14.70;42.80;;;;;;5065143;28;46908;-22
2022/04/10 08:37:34;;;;;;;0.70;0.70;;;14.70;42.80;;;;;;5064931;28;49073;-12
2022/04/10 08:40:01;;;;;;;0.60;0.60;;;14.70;42.90;;;;;;5064732;28;47214;-22
2022/04/10 08:42:28;;;;;;;1.50;0.93;;;14.70;42.90;;;;;;5064959;28;46802;-22
2022/04/10 08:44:56;;;;;;;1.63;0.90;;;14.80;42.80;;;;;;5064853;28;46866;-22
2022/04/10 08:47:23;;;;;;;1.38;1.00;;;14.80;42.90;;;;;;5064906;28;48060;-12
2022/04/10 08:49:51;;;;;;;0.82;0.80;;;14.80;42.90;;;;;;5064600;28;47156;-12
2022/04/10 08:52:18;;;;;;;0.77;0.77;;;14.80;42.80;;;;;;5064782;28;46931;-23
2022/04/10 08:54:45;;;;;;;0.80;0.80;;;14.90;43.00;;;;;;5064638;28;47072;-12
2022/04/10 08:57:11;;;;;;;0.80;0.80;;;14.90;43.00;;;;;;5064457;28;48881;-22
2022/04/10 08:59:38;;;;;;;0.75;0.70;;;14.90;43.00;;;;;;5064443;28;47041;-22
2022/04/10 09:02:06;;;;;;;0.70;0.70;;;14.90;43.10;;;;;;5064586;28;47006;-22
2022/04/10 09:04:33;;;;;;;0.77;0.77;;;14.90;43.10;;;;;;5064881;28;46825;-12
2022/04/10 09:07:02;;;;;;;0.77;0.70;;;15.00;43.10;;;;;;5064083;28;47845;-23
2022/04/10 09:09:29;;;;;;;0.70;0.70;;;15.00;43.10;;;;;;5064323;28;47206;-22
2022/04/10 09:11:56;;;;;;;1.10;0.88;;;15.00;43.10;;;;;;5064140;28;46839;-22
2022/04/10 09:14:23;;;;;;;1.67;0.90;;;15.00;43.00;;;;;;5065378;28;47078;-12
2022/04/10 09:17:11;;;;;;;0.70;0.70;;;15.10;43.00;;;;;;5067798;28;47902;-22
2022/04/10 09:19:38;;;;;;;0.70;0.70;;;15.10;42.90;;;;;;5067949;28;46839;-22
2022/04/10 09:22:20;;;;;;;0.70;0.70;;;15.20;42.80;;;;;;5067966;28;47005;-12
2022/04/10 09:25:04;;;;;;;0.68;0.60;;;15.20;42.70;;;;;;5068203;28;46884;-22
2022/04/10 09:27:31;;;;;;;0.90;0.88;;;15.30;42.60;;;;;;5067745;28;49152;-12
2022/04/10 09:29:58;;;;;;;0.55;0.55;;;15.30;42.40;;;;;;5067584;28;47456;-12
2022/04/10 09:32:36;;;;;;;0.80;0.77;;;15.30;42.40;;;;;;5067715;28;46978;-12
2022/04/10 09:35:03;;;;;;;1.27;0.80;;;15.40;42.40;;;;;;5066382;28;46927;-12
2022/04/10 09:37:32;;;;;;;0.50;0.50;;;15.40;42.40;;;;;;5067478;28;46839;-13
2022/04/10 09:40:00;;;;;;;0.73;0.73;;;15.50;42.30;;;;;;5067495;28;46906;-12
2022/04/10 09:42:30;;;;;;;0.70;0.70;;;15.50;42.30;;;;;;5067124;28;46839;-22
2022/04/10 09:44:57;;;;;;;0.90;0.73;;;15.50;42.20;;;;;;5067825;28;46835;-12
2022/04/10 09:47:27;;;;;;;0.70;0.70;;;15.60;42.20;;;;;;5067267;28;49183;-20
2022/04/10 09:49:54;;;;;;;1.00;0.70;;;15.60;42.40;;;;;;5067671;28;46916;-23
2022/04/10 09:52:20;;;;;;;0.60;0.60;;;15.60;42.50;;;;;;5067255;28;46835;-23
2022/04/10 09:54:50;;;;;;;0.68;0.60;;;15.60;42.60;;;;;;5067205;28;47050;-23
2022/04/10 09:57:17;;;;;;;0.70;0.70;;;15.60;42.70;;;;;;5066973;28;48119;-12
2022/04/10 09:59:44;;;;;;;0.93;0.60;;;15.60;42.70;;;;;;5067346;28;47246;-13
2022/04/10 10:02:11;;;;;;;0.70;0.68;;;15.60;42.80;;;;;;5067186;28;46854;-23
2022/04/10 10:04:40;;;;;;;1.00;0.55;;;15.60;42.90;;;;;;5067513;28;46939;-22
2022/04/10 10:07:08;;;;;;;0.73;0.52;;;15.60;43.00;;;;;;5066696;28;47868;-12
2022/04/10 10:09:35;;;;;;;0.93;0.70;;;15.60;43.00;;;;;;5066835;28;47544;-13
2022/04/10 10:12:03;;;;;;;0.70;0.60;;;15.60;43.00;;;;;;5066907;28;46960;-13
2022/04/10 10:14:31;;;;;;;1.00;0.75;;;15.60;43.10;;;;;;5067095;28;47191;-13
2022/04/10 10:16:58;;;;;;;1.80;0.77;;;15.60;43.10;;;;;;5066806;28;47099;-13
2022/04/10 10:19:25;;;;;;;0.70;0.70;;;15.60;43.10;;;;;;5066963;28;46851;-23
2022/04/10 10:21:54;;;;;;;0.52;0.52;;;15.70;43.10;;;;;;5066839;28;46917;-13
2022/04/10 10:24:22;;;;;;;1.10;0.80;;;15.70;43.00;;;;;;5066942;28;47265;-23
2022/04/10 10:26:57;;;;;;;0.70;0.60;;;15.80;42.70;;;;;;5065614;28;48801;-13
2022/04/10 10:29:45;;;;;;;0.60;0.57;;;15.90;42.70;;;;;;5066649;28;46901;-13
2022/04/10 10:32:14;;;;;;;0.65;0.65;;;15.90;42.40;;;;;;5066298;28;46907;-13
2022/04/10 10:34:42;;;;;;;0.50;0.50;;;16.00;42.20;;;;;;5067075;28;47076;-23
2022/04/10 10:37:12;;;;;;;0.55;0.55;;;16.10;42.20;;;;;;5066595;28;47848;-13
2022/04/10 10:39:45;;;;;;;0.95;0.70;;;16.10;42.00;;;;;;5066786;28;47255;-13
2022/04/10 10:42:12;;;;;;;0.50;0.47;;;16.20;41.90;;;;;;5066548;28;47114;-22
2022/04/10 10:44:49;;;;;;;0.60;0.60;;;16.20;42.00;;;;;;5067092;28;46815;-13
2022/04/10 10:47:21;;;;;;;0.50;0.50;;;16.20;41.80;;;;;;5066035;28;47186;-12
2022/04/10 10:49:49;;;;;;;0.50;0.50;;;16.30;42.10;;;;;;5066384;28;47433;-12
2022/04/10 10:52:17;;;;;;;0.50;0.50;;;16.30;41.80;;;;;;5066388;28;46785;-20
2022/04/10 10:54:46;;;;;;;0.30;0.30;;;16.30;41.80;;;;;;5066461;28;46764;-19
2022/04/10 10:57:40;;;;;;;0.50;0.50;;;16.40;41.70;;;;;;5066191;28;47005;-23
2022/04/10 11:00:13;;;;;;;0.52;0.52;;;16.60;41.50;;;;;;5066254;28;47365;-23
2022/04/10 11:02:39;;;;;;;0.80;0.70;;;16.60;41.40;;;;;;5066073;28;46823;-23
2022/04/10 11:05:07;;;;;;;0.43;0.43;;;16.60;41.00;;;;;;5066295;28;46871;-23
2022/04/10 11:07:39;;;;;;;0.65;0.60;;;16.70;41.20;;;;;;5066109;28;47074;-13
2022/04/10 11:10:08;;;;;;;0.50;0.50;;;16.80;40.80;;;;;;5066527;28;46835;-23
2022/04/10 11:12:35;;;;;;;0.50;0.50;;;16.80;41.00;;;;;;5066283;28;47025;-22
2022/04/10 11:15:13;;;;;;;0.60;0.60;;;16.80;41.50;;;;;;5066221;28;47097;-22
2022/04/10 11:17:40;;;;;;;0.45;0.45;;;16.80;42.00;;;;;;5066004;28;47095;-22
2022/04/10 11:20:09;;;;;;;0.50;0.50;;;16.90;41.40;;;;;;5066122;28;47069;-13
2022/04/10 11:22:40;;;;;;;0.52;0.52;;;16.90;41.50;;;;;;5065624;28;46961;-23
2022/04/10 11:25:07;;;;;;;0.50;0.50;;;16.90;41.50;;;;;;5066309;28;47007;-22
2022/04/10 11:27:50;;;;;;;0.40;0.40;;;16.90;41.50;;;;;;5065782;28;49060;-12
2022/04/10 11:30:20;;;;;;;0.52;0.50;;;17.00;41.40;;;;;;5065992;28;47126;-12
2022/04/10 11:32:49;;;;;;;0.50;0.50;;;17.00;41.50;;;;;;5065723;28;46893;-23
2022/04/10 11:35:26;;;;;;;0.60;0.60;;;17.00;41.50;;;;;;5066179;28;46879;-12
2022/04/10 11:37:56;;;;;;;0.50;0.50;;;17.00;41.50;;;;;;5065328;28;48155;-12
2022/04/10 11:40:24;;;;;;;0.50;0.50;;;17.00;41.60;;;;;;5065864;28;46815;-12
2022/04/10 11:42:54;;;;;;;0.45;0.45;;;17.00;41.40;;;;;;5065506;28;46798;-12
2022/04/10 11:45:21;;;;;;;0.43;0.43;;;17.10;41.50;;;;;;5065976;28;46930;-13
2022/04/10 11:47:48;;;;;;;0.50;0.50;;;17.10;41.60;;;;;;5065245;28;49049;-23
2022/04/10 11:50:15;;;;;;;0.50;0.50;;;17.20;41.80;;;;;;5065720;28;46877;-22
2022/04/10 11:52:42;;;;;;;0.47;0.47;;;17.30;42.00;;;;;;5065306;28;46734;-22
2022/04/10 11:55:11;;;;;;;0.40;0.40;;;17.40;42.00;;;;;;5065727;28;46834;-12
2022/04/10 11:57:39;;;;;;;0.40;0.40;;;17.50;41.50;;;;;;5065010;28;46825;-12
2022/04/10 12:00:09;;;;;;;0.52;0.52;;;17.60;41.50;;;;;;5065618;28;46845;-12
2022/04/10 12:02:37;;;;;;;1.50;0.50;;;17.70;41.00;;;;;;5065456;28;46870;-22
2022/04/10 12:05:04;;;;;;;0.90;0.50;;;17.80;40.80;;;;;;5065414;28;46979;-22
2022/04/10 12:07:31;;;;;;;0.60;0.60;;;17.90;40.80;;;;;;5065193;28;46837;-13
2022/04/10 12:09:58;;;;;;;0.40;0.40;;;18.00;40.60;;;;;;5065000;28;46935;-23
2022/04/10 12:12:35;;;;;;;0.55;0.55;;;18.10;40.60;;;;;;5065297;28;46971;-23
2022/04/10 12:15:02;;;;;;;0.60;0.60;;;18.20;40.50;;;;;;5061719;28;47152;-13
2022/04/10 12:17:29;;;;;;;0.50;0.50;;;18.30;40.40;;;;;;5049300;28;48043;-13
2022/04/10 12:19:57;;;;;;;0.52;0.52;;;18.30;39.90;;;;;;5049171;28;47259;-12
2022/04/10 12:22:24;;;;;;;1.13;0.75;;;18.40;39.80;;;;;;5065050;28;47068;-23
2022/04/10 12:24:50;;;;;;;0.60;0.60;;;18.40;39.90;;;;;;5064106;28;46927;-22
2022/04/10 12:27:17;;;;;;;0.88;0.52;;;18.30;40.30;;;;;;5065262;28;48758;-23
2022/04/10 12:29:45;;;;;;;0.70;0.57;;;18.30;40.20;;;;;;5068347;28;46982;-22
2022/04/10 12:32:12;;;;;;;0.60;0.60;;;18.20;40.20;;;;;;5067085;28;46847;-12
2022/04/10 12:34:41;;;;;;;0.50;0.50;;;18.30;40.00;;;;;;5064958;28;46903;-13
2022/04/10 12:37:09;;;;;;;0.82;0.55;;;18.30;40.60;;;;;;5063678;28;46891;-23
2022/04/10 12:39:36;;;;;;;0.52;0.52;;;18.30;40.00;;;;;;5067300;28;46816;-23
2022/04/10 12:42:03;;;;;;;0.65;0.65;;;18.20;40.50;;;;;;5057729;28;46946;-23
2022/04/10 12:44:30;;;;;;;0.50;0.50;;;18.20;40.80;;;;;;5066389;28;47166;-12
2022/04/10 12:46:58;;;;;;;0.40;0.40;;;18.20;41.60;;;;;;5047522;28;47005;-22
2022/04/10 12:49:25;;;;;;;0.73;0.68;;;18.10;41.70;;;;;;5053226;28;47248;-12
2022/04/10 12:51:54;;;;;;;0.57;0.55;;;18.10;42.00;;;;;;5069903;28;46997;-22
2022/04/10 12:54:33;;;;;;;0.50;0.50;;;18.10;41.40;;;;;;5069073;28;47116;-22
2022/04/10 12:57:00;;;;;;;0.70;0.55;;;18.10;41.30;;;;;;5067621;28;48377;-13